createdAt,value
2017-09-19T00:00:57.814Z,25.73
2017-09-19T00:03:25.306Z,25.98
2017-09-19T00:05:52.795Z,23.62
2017-09-19T00:08:20.301Z,25.48
2017-09-19T00:10:47.787Z,26.48
2017-09-19T00:13:15.296Z,27.30
2017-09-19T00:15:42.775Z,25.73
2017-09-19T00:18:10.282Z,25.67
2017-09-19T00:20:37.763Z,25.33
2017-09-19T00:23:05.271Z,26.12
2017-09-19T00:25:32.747Z,25.05
2017-09-19T00:28:00.263Z,26.02
2017-09-19T00:30:27.743Z,23.52
2017-09-19T00:32:55.234Z,25.30
2017-09-19T00:35:22.739Z,24.58
2017-09-19T00:37:50.219Z,25.00
2017-09-19T00:40:17.723Z,23.12
2017-09-19T00:42:45.211Z,24.17
2017-09-19T00:45:12.710Z,24.95
2017-09-19T00:47:40.191Z,26.50
2017-09-19T00:50:08.456Z,24.05
2017-09-19T00:52:35.936Z,25.23
2017-09-19T00:55:03.444Z,23.85
2017-09-19T00:57:30.930Z,23.60
2017-09-19T00:59:59.201Z,23.00
2017-09-19T01:02:27.444Z,24.27
2017-09-19T01:04:54.941Z,24.58
2017-09-19T01:07:23.202Z,24.33
2017-09-19T01:09:50.684Z,22.05
2017-09-19T01:12:18.935Z,23.85
2017-09-19T01:14:46.421Z,23.87
2017-09-19T01:17:13.911Z,22.33
2017-09-19T01:19:41.706Z,22.85
2017-09-19T01:22:09.192Z,20.77
2017-09-19T01:24:36.711Z,21.60
2017-09-19T01:27:04.972Z,22.45
2017-09-19T01:29:32.451Z,20.00
2017-09-19T01:31:59.949Z,21.50
2017-09-19T01:34:28.196Z,22.02
2017-09-19T01:36:55.685Z,21.70
2017-09-19T01:39:23.170Z,21.33
2017-09-19T01:41:50.659Z,19.98
2017-09-19T01:44:18.134Z,20.62
2017-09-19T01:46:46.395Z,20.77
2017-09-19T01:49:13.896Z,21.52
2017-09-19T01:51:41.383Z,22.77
2017-09-19T01:54:08.875Z,21.25
2017-09-19T01:56:36.372Z,19.65
2017-09-19T01:59:03.875Z,19.92
2017-09-19T02:01:31.350Z,20.58
2017-09-19T02:03:58.840Z,19.83
2017-09-19T02:06:26.315Z,19.90
2017-09-19T02:08:53.816Z,19.83
2017-09-19T02:11:21.319Z,20.10
2017-09-19T02:13:48.812Z,19.12
2017-09-19T02:16:16.297Z,21.25
2017-09-19T02:21:17.579Z,19.90
2017-09-19T02:23:45.847Z,18.65
2017-09-19T02:26:14.096Z,19.55
2017-09-19T02:28:41.604Z,20.02
2017-09-19T02:31:09.088Z,20.10
2017-09-19T02:33:36.583Z,18.87
2017-09-19T02:36:04.084Z,19.08
2017-09-19T02:38:31.569Z,20.70
2017-09-19T02:40:59.063Z,19.90
2017-09-19T02:43:26.545Z,18.73
2017-09-19T02:45:54.048Z,19.52
2017-09-19T02:48:21.524Z,19.67
2017-09-19T02:50:49.024Z,19.70
2017-09-19T02:53:16.515Z,18.92
2017-09-19T02:55:44.010Z,18.17
2017-09-19T02:58:12.259Z,19.35
2017-09-19T03:00:39.758Z,19.65
2017-09-19T03:03:07.248Z,18.45
2017-09-19T03:05:34.736Z,20.42
2017-09-19T03:08:02.225Z,21.08
2017-09-19T03:10:30.468Z,20.27
2017-09-19T03:12:57.954Z,21.58
2017-09-19T03:15:26.208Z,22.10
2017-09-19T03:17:53.708Z,22.20
2017-09-19T03:20:21.223Z,23.27
2017-09-19T03:22:48.791Z,24.02
2017-09-19T03:25:16.285Z,21.12
2017-09-19T03:27:43.791Z,22.80
2017-09-19T03:30:11.288Z,21.55
2017-09-19T03:32:38.836Z,22.67
2017-09-19T03:35:06.323Z,23.77
2017-09-19T03:37:33.823Z,24.15
2017-09-19T03:40:01.333Z,21.75
2017-09-19T03:42:28.841Z,22.67
2017-09-19T03:44:56.541Z,21.65
2017-09-19T03:47:24.032Z,25.08
2017-09-19T03:49:51.548Z,22.40
2017-09-19T03:52:19.047Z,24.00
2017-09-19T03:54:46.561Z,22.58
2017-09-19T03:57:14.832Z,23.60
2017-09-19T03:59:43.115Z,24.17
2017-09-19T04:02:10.611Z,22.13
2017-09-19T04:04:38.104Z,22.23
2017-09-19T04:07:05.595Z,22.92
2017-09-19T04:09:33.126Z,22.45
2017-09-19T04:12:00.614Z,23.95
2017-09-19T04:14:28.139Z,25.85
2017-09-19T04:16:55.641Z,24.58
2017-09-19T04:19:23.159Z,22.08
2017-09-19T04:21:50.651Z,24.35
2017-09-19T04:24:18.175Z,23.52
2017-09-19T04:26:45.661Z,24.02
2017-09-19T04:29:13.181Z,26.80
2017-09-19T04:31:54.410Z,26.85
2017-09-19T04:34:22.979Z,24.77
2017-09-19T04:36:50.476Z,24.27
2017-09-19T04:39:18.009Z,26.05
2017-09-19T04:41:45.520Z,61.85
2017-09-19T04:44:13.021Z,27.17
2017-09-19T04:46:40.642Z,27.25
2017-09-19T04:49:08.139Z,29.85
2017-09-19T04:51:35.652Z,27.25
2017-09-19T04:54:03.142Z,39.63
2017-09-19T04:56:30.651Z,28.58
2017-09-19T04:58:58.139Z,24.90
2017-09-19T05:01:25.690Z,27.55
2017-09-19T05:03:53.190Z,28.62
2017-09-19T05:06:20.709Z,27.83
2017-09-19T05:08:48.311Z,27.02
2017-09-19T05:11:15.803Z,24.80
2017-09-19T05:13:43.299Z,26.80
2017-09-19T05:16:10.854Z,27.35
2017-09-19T05:18:38.363Z,28.15
2017-09-19T05:21:05.890Z,29.98
2017-09-19T05:23:33.381Z,30.65
2017-09-19T05:26:00.889Z,36.00
2017-09-19T05:28:29.373Z,33.72
2017-09-19T05:30:56.875Z,38.45
2017-09-19T05:33:24.386Z,42.85
2017-09-19T05:35:51.891Z,42.33
2017-09-19T05:38:19.452Z,41.50
2017-09-19T05:40:47.300Z,45.78
2017-09-19T05:43:20.147Z,44.33
2017-09-19T05:45:47.663Z,42.97
2017-09-19T05:48:15.199Z,49.17
2017-09-19T05:50:42.731Z,41.67
2017-09-19T05:53:10.231Z,37.70
2017-09-19T05:55:37.753Z,34.53
2017-09-19T05:58:05.275Z,30.33
2017-09-19T06:00:32.868Z,56.63
2017-09-19T06:03:00.399Z,54.22
2017-09-19T06:05:27.976Z,51.60
2017-09-19T06:07:55.515Z,58.30
2017-09-19T06:10:23.026Z,52.88
2017-09-19T06:12:50.564Z,55.58
2017-09-19T06:15:18.075Z,59.72
2017-09-19T06:17:45.579Z,52.58
2017-09-19T06:20:13.604Z,52.17
2017-09-19T06:22:41.107Z,50.45
2017-09-19T06:25:08.616Z,54.33
2017-09-19T06:27:36.128Z,53.08
2017-09-19T06:30:03.647Z,61.40
2017-09-19T06:32:32.037Z,60.97
2017-09-19T06:34:59.593Z,59.05
2017-09-19T06:37:27.075Z,62.35
2017-09-19T06:39:54.611Z,70.82
2017-09-19T06:42:22.105Z,71.95
2017-09-19T06:44:49.631Z,63.53
2017-09-19T06:47:17.921Z,63.13
2017-09-19T06:49:46.207Z,69.07
2017-09-19T06:52:13.755Z,63.90
2017-09-19T06:54:41.344Z,73.70
2017-09-19T06:57:08.931Z,66.45
2017-09-19T06:59:36.455Z,64.37
2017-09-19T07:02:04.005Z,65.07
2017-09-19T07:04:31.511Z,65.62
2017-09-19T07:06:59.019Z,62.20
2017-09-19T07:09:26.560Z,62.45
2017-09-19T07:11:54.092Z,57.72
2017-09-19T07:14:21.658Z,61.47
2017-09-19T07:16:49.203Z,54.58
2017-09-19T07:19:16.711Z,70.53
2017-09-19T07:21:44.233Z,63.00
2017-09-19T07:24:11.744Z,64.95
2017-09-19T07:26:39.258Z,62.20
2017-09-19T07:29:07.535Z,61.22
2017-09-19T07:31:36.131Z,61.33
2017-09-19T07:34:04.424Z,59.88
2017-09-19T07:36:31.961Z,58.92
2017-09-19T07:38:59.535Z,67.07
2017-09-19T07:41:27.035Z,60.50
2017-09-19T07:43:54.535Z,55.92
2017-09-19T07:46:22.043Z,65.35
2017-09-19T07:48:49.559Z,61.95
2017-09-19T07:51:17.066Z,59.58
2017-09-19T07:53:44.578Z,58.65
2017-09-19T07:56:12.114Z,69.70
2017-09-19T07:58:39.636Z,61.60
2017-09-19T08:01:07.155Z,60.85
2017-09-19T08:03:35.459Z,60.15
2017-09-19T08:06:02.987Z,64.50
2017-09-19T08:08:31.311Z,57.78
2017-09-19T08:10:58.823Z,64.32
2017-09-19T08:13:26.365Z,65.12
2017-09-19T08:15:53.871Z,61.45
2017-09-19T08:18:21.378Z,56.88
2017-09-19T08:20:49.699Z,64.28
2017-09-19T08:23:17.182Z,57.47
2017-09-19T08:25:44.702Z,59.80
2017-09-19T08:28:12.179Z,61.92
2017-09-19T08:30:39.701Z,62.42
2017-09-19T08:33:08.018Z,59.05
2017-09-19T08:35:35.592Z,63.00
2017-09-19T08:38:03.084Z,60.17
2017-09-19T08:40:31.369Z,57.65
2017-09-19T08:42:58.982Z,60.88
2017-09-19T08:45:26.492Z,54.83
2017-09-19T08:47:54.780Z,54.05
2017-09-19T08:50:22.287Z,55.33
2017-09-19T08:52:49.796Z,55.03
2017-09-19T08:55:17.331Z,55.25
2017-09-19T08:57:45.623Z,50.63
2017-09-19T09:00:13.174Z,55.83
2017-09-19T09:02:41.507Z,51.88
2017-09-19T09:05:09.022Z,53.83
2017-09-19T09:07:36.559Z,48.67
2017-09-19T09:10:04.125Z,49.47
2017-09-19T09:12:31.677Z,50.63
2017-09-19T09:14:59.205Z,45.65
2017-09-19T09:17:26.754Z,52.25
2017-09-19T09:19:54.310Z,48.95
2017-09-19T09:22:21.795Z,45.90
2017-09-19T09:24:49.358Z,45.15
2017-09-19T09:27:16.848Z,48.60
2017-09-19T09:29:44.399Z,46.95
2017-09-19T09:32:11.976Z,44.90
2017-09-19T09:34:39.522Z,43.33
2017-09-19T09:37:07.080Z,43.28
2017-09-19T09:39:35.537Z,43.78
2017-09-19T09:42:03.168Z,41.25
2017-09-19T09:44:30.801Z,43.75
2017-09-19T09:46:58.651Z,38.55
2017-09-19T09:52:00.057Z,37.25
2017-09-19T09:54:27.572Z,38.42
2017-09-19T09:56:55.111Z,40.60
2017-09-19T09:59:22.656Z,37.05
2017-09-19T10:01:50.230Z,37.95
2017-09-19T10:04:17.747Z,36.88
2017-09-19T10:06:45.277Z,35.42
2017-09-19T10:09:12.823Z,41.37
2017-09-19T10:11:40.421Z,36.97
2017-09-19T10:14:08.111Z,40.88
2017-09-19T10:16:35.670Z,43.40
2017-09-19T10:19:03.220Z,37.55
2017-09-19T10:21:30.779Z,38.13
2017-09-19T10:23:58.294Z,37.53
2017-09-19T10:26:25.901Z,34.60
2017-09-19T10:28:53.604Z,37.05
2017-09-19T10:31:21.232Z,40.72
2017-09-19T10:33:49.333Z,39.35
2017-09-19T10:36:16.968Z,42.15
2017-09-19T10:38:44.515Z,45.35
2017-09-19T10:41:12.071Z,44.70
2017-09-19T10:43:39.561Z,44.40
2017-09-19T10:46:07.216Z,48.28
2017-09-19T10:48:36.193Z,43.65
2017-09-19T10:51:03.849Z,45.15
2017-09-19T10:53:32.057Z,44.92
2017-09-19T10:55:59.728Z,44.63
2017-09-19T10:58:27.329Z,39.90
2017-09-19T11:00:55.006Z,42.60
2017-09-19T11:03:22.658Z,42.42
2017-09-19T11:05:50.586Z,38.03
2017-09-19T11:08:18.243Z,39.13
2017-09-19T11:10:45.836Z,42.05
2017-09-19T11:13:13.365Z,37.95
2017-09-19T11:15:40.914Z,36.88
2017-09-19T11:18:08.484Z,29.98
2017-09-19T11:20:35.971Z,31.20
2017-09-19T11:23:03.480Z,35.15
2017-09-19T11:25:31.859Z,33.30
2017-09-19T11:27:59.411Z,34.00
2017-09-19T11:30:27.697Z,33.75
2017-09-19T11:32:55.203Z,35.30
2017-09-19T11:35:22.724Z,30.15
2017-09-19T11:37:50.447Z,31.62
2017-09-19T11:40:17.995Z,31.60
2017-09-19T11:42:45.490Z,34.40
2017-09-19T11:45:13.820Z,28.65
2017-09-19T11:47:41.302Z,31.90
2017-09-19T11:50:08.841Z,29.65
2017-09-19T11:52:36.356Z,28.60
2017-09-19T11:55:03.884Z,30.62
2017-09-19T11:57:31.371Z,29.27
2017-09-19T11:59:58.900Z,29.20
2017-09-19T12:02:26.428Z,26.50
2017-09-19T12:04:53.996Z,26.98
2017-09-19T12:07:21.520Z,27.92
2017-09-19T12:09:49.034Z,29.55
2017-09-19T12:12:16.519Z,28.87
2017-09-19T12:14:44.064Z,31.23
2017-09-19T12:17:11.602Z,31.08
2017-09-19T12:19:39.100Z,28.65
2017-09-19T12:22:06.916Z,34.55
2017-09-19T12:24:34.427Z,33.42
2017-09-19T12:27:01.925Z,31.58
2017-09-19T12:29:29.436Z,30.17
2017-09-19T12:31:56.960Z,29.12
2017-09-19T12:34:24.454Z,30.85
2017-09-19T12:36:51.958Z,34.45
2017-09-19T12:39:19.505Z,29.35
2017-09-19T12:41:47.015Z,28.45
2017-09-19T12:44:14.536Z,33.83
2017-09-19T12:46:42.090Z,31.77
2017-09-19T12:49:09.641Z,31.70
2017-09-19T12:51:37.155Z,30.88
2017-09-19T12:54:04.661Z,28.25
2017-09-19T12:56:32.167Z,28.77
2017-09-19T12:58:59.671Z,29.25
2017-09-19T13:01:27.212Z,31.20
2017-09-19T13:03:55.010Z,31.33
2017-09-19T13:06:22.564Z,28.00
2017-09-19T13:08:50.084Z,26.60
2017-09-19T13:11:17.652Z,26.25
2017-09-19T13:13:45.151Z,22.00
2017-09-19T13:16:12.689Z,24.10
2017-09-19T13:18:40.295Z,27.73
2017-09-19T13:21:07.918Z,25.12
2017-09-19T13:23:35.430Z,24.63
2017-09-19T13:26:02.919Z,26.02
2017-09-19T13:28:30.442Z,25.40
2017-09-19T13:33:58.446Z,22.30
2017-09-19T13:36:25.943Z,20.50
2017-09-19T13:38:53.451Z,20.23
2017-09-19T13:41:20.962Z,16.70
2017-09-19T13:43:48.497Z,13.20
2017-09-19T13:46:15.993Z,14.75
2017-09-19T13:48:43.521Z,14.57
2017-09-19T13:51:11.023Z,14.13
2017-09-19T13:53:39.286Z,15.80
2017-09-19T13:56:06.776Z,15.90
2017-09-19T13:58:34.301Z,17.10
2017-09-19T14:01:01.799Z,15.68
2017-09-19T14:03:29.314Z,16.48
2017-09-19T14:05:57.592Z,17.90
2017-09-19T14:08:25.883Z,17.52
2017-09-19T14:10:54.144Z,17.52
2017-09-19T14:13:21.657Z,14.20
2017-09-19T14:15:49.169Z,13.23
2017-09-19T14:18:17.484Z,12.63
2017-09-19T14:20:45.002Z,11.82
2017-09-19T14:23:12.497Z,10.38
2017-09-19T14:25:40.033Z,11.23
2017-09-19T14:28:07.556Z,8.40
2017-09-19T14:30:35.084Z,9.40
2017-09-19T14:33:02.577Z,10.73
2017-09-19T14:35:30.083Z,9.05
2017-09-19T14:37:57.579Z,10.85
2017-09-19T14:40:25.099Z,13.70
2017-09-19T14:42:52.651Z,11.82
2017-09-19T14:45:20.177Z,12.60
2017-09-19T14:47:47.681Z,13.43
2017-09-19T14:50:15.203Z,10.65
2017-09-19T14:52:43.484Z,10.15
2017-09-19T14:55:11.749Z,9.60
2017-09-19T14:57:39.253Z,10.10
2017-09-19T15:00:06.750Z,11.65
2017-09-19T15:02:34.310Z,12.25
2017-09-19T15:05:01.816Z,10.20
2017-09-19T15:07:29.324Z,10.80
2017-09-19T15:09:56.815Z,13.60
2017-09-19T15:12:25.080Z,14.52
2017-09-19T15:14:53.342Z,11.50
2017-09-19T15:17:20.851Z,15.48
2017-09-19T15:19:48.338Z,13.70
2017-09-19T15:22:15.835Z,12.73
2017-09-19T15:24:44.116Z,12.52
2017-09-19T15:27:11.693Z,13.13
2017-09-19T15:29:39.199Z,11.95
2017-09-19T15:32:07.032Z,11.65
2017-09-19T15:34:34.530Z,13.18
2017-09-19T15:37:02.079Z,11.25
2017-09-19T15:39:29.579Z,12.10
2017-09-19T15:41:57.135Z,11.48
2017-09-19T15:44:24.639Z,11.38
2017-09-19T15:46:52.140Z,11.73
2017-09-19T15:49:20.405Z,10.50
2017-09-19T15:51:47.920Z,9.65
2017-09-19T15:54:15.420Z,9.27
2017-09-19T15:56:42.906Z,7.75
2017-09-19T15:59:10.480Z,6.12
2017-09-19T16:01:37.971Z,5.50
2017-09-19T16:04:05.497Z,4.93
2017-09-19T16:06:33.034Z,5.47
2017-09-19T16:09:01.323Z,7.50
2017-09-19T16:11:28.830Z,5.80
2017-09-19T16:13:56.332Z,3.60
2017-09-19T16:16:23.837Z,3.30
2017-09-19T16:18:51.346Z,3.35
2017-09-19T16:21:18.846Z,3.20
2017-09-19T16:23:46.344Z,3.28
2017-09-19T16:26:14.619Z,2.92
2017-09-19T16:28:42.883Z,2.87
2017-09-19T16:31:10.387Z,2.95
2017-09-19T16:33:37.877Z,3.00
2017-09-19T16:36:05.377Z,3.05
2017-09-19T16:38:33.635Z,2.65
2017-09-19T16:41:01.193Z,3.00
2017-09-19T16:43:28.682Z,2.85
2017-09-19T16:45:56.189Z,3.10
2017-09-19T16:48:23.669Z,3.15
2017-09-19T16:50:51.171Z,3.20
2017-09-19T16:53:18.650Z,3.55
2017-09-19T16:55:46.123Z,3.65
2017-09-19T16:58:13.627Z,3.30
2017-09-19T17:00:41.113Z,3.67
2017-09-19T17:03:08.619Z,4.87
2017-09-19T17:05:36.901Z,4.47
2017-09-19T17:08:05.172Z,3.60
2017-09-19T17:10:33.483Z,3.85
2017-09-19T17:13:00.976Z,3.70
2017-09-19T17:15:28.459Z,4.43
2017-09-19T17:17:55.979Z,4.15
2017-09-19T17:20:23.466Z,3.80
2017-09-19T17:22:50.981Z,5.40
2017-09-19T17:25:18.463Z,5.50
2017-09-19T17:27:46.979Z,4.57
2017-09-19T17:30:15.251Z,5.50
2017-09-19T17:32:42.754Z,6.55
2017-09-19T17:35:10.247Z,6.05
2017-09-19T17:37:37.767Z,6.07
2017-09-19T17:40:05.267Z,5.20
2017-09-19T17:42:32.752Z,5.87
2017-09-19T17:45:01.031Z,5.03
2017-09-19T17:47:28.582Z,5.43
2017-09-19T17:49:56.184Z,5.62
2017-09-19T17:52:23.682Z,5.65
2017-09-19T17:54:51.183Z,5.18
2017-09-19T17:57:18.735Z,5.40
2017-09-19T17:59:46.275Z,5.60
2017-09-19T18:02:14.568Z,5.93
2017-09-19T18:04:42.092Z,5.65
2017-09-19T18:07:09.630Z,5.78
2017-09-19T18:09:37.140Z,6.95
2017-09-19T18:12:04.657Z,6.25
2017-09-19T18:14:32.174Z,7.22
2017-09-19T18:17:00.099Z,6.82
2017-09-19T18:19:27.617Z,6.85
2017-09-19T18:21:55.120Z,8.27
2017-09-19T18:24:22.663Z,4.40
2017-09-19T18:26:50.161Z,3.40
2017-09-19T18:29:17.659Z,3.33
2017-09-19T18:31:45.179Z,3.12
2017-09-19T18:34:12.731Z,3.65
2017-09-19T18:36:52.136Z,3.30
2017-09-19T18:39:19.628Z,3.10
2017-09-19T18:41:47.155Z,4.32
2017-09-19T18:44:14.738Z,2.85
2017-09-19T18:46:42.239Z,2.42
2017-09-19T18:49:09.736Z,4.40
2017-09-19T18:51:38.187Z,5.55
2017-09-19T18:54:05.704Z,3.17
2017-09-19T18:56:33.223Z,2.87
2017-09-19T18:59:00.778Z,2.95
2017-09-19T19:01:28.320Z,3.70
2017-09-19T19:03:55.813Z,4.60
2017-09-19T19:06:23.358Z,3.72
2017-09-19T19:08:51.048Z,4.10
2017-09-19T19:11:18.816Z,4.18
2017-09-19T19:13:46.369Z,3.97
2017-09-19T19:16:13.899Z,4.97
2017-09-19T19:18:41.440Z,6.12
2017-09-19T19:21:08.961Z,4.45
2017-09-19T19:23:36.523Z,5.57
2017-09-19T19:26:04.178Z,5.12
2017-09-19T19:28:31.684Z,4.93
2017-09-19T19:30:59.183Z,5.03
2017-09-19T20:17:06.463Z,3.33
2017-09-19T20:19:33.998Z,3.87
2017-09-19T20:22:01.519Z,3.12
2017-09-19T20:24:29.023Z,3.37
2017-09-19T20:26:56.631Z,3.67
2017-09-19T20:29:24.122Z,3.05
2017-09-19T20:31:51.648Z,3.50
2017-09-19T20:34:19.190Z,3.00
2017-09-19T20:36:47.450Z,5.32
2017-09-19T20:39:14.943Z,3.30
2017-09-19T20:41:42.452Z,3.28
2017-09-19T20:44:10.720Z,3.12
2017-09-19T20:46:38.257Z,2.90
2017-09-19T20:49:05.767Z,2.85
2017-09-19T20:51:33.307Z,3.42
2017-09-19T20:54:01.579Z,4.57
2017-09-19T20:56:29.092Z,3.50
2017-09-19T20:58:56.598Z,4.15
2017-09-19T21:01:24.123Z,4.65
2017-09-19T21:03:57.288Z,3.87
2017-09-19T21:06:30.545Z,4.50
2017-09-19T21:09:03.631Z,4.18
2017-09-19T21:11:36.764Z,4.80
2017-09-19T21:14:09.953Z,4.62
2017-09-19T21:16:43.142Z,4.28
2017-09-19T21:19:16.330Z,3.65
2017-09-19T21:21:43.840Z,7.25
2017-09-19T21:24:11.359Z,4.82
2017-09-19T21:26:38.874Z,4.50
2017-09-19T21:29:07.206Z,4.72
2017-09-19T21:31:34.769Z,7.43
2017-09-19T21:34:02.304Z,6.57
2017-09-19T21:36:29.842Z,4.68
2017-09-19T21:38:57.386Z,5.53
2017-09-19T21:41:24.892Z,6.60
2017-09-19T21:43:52.430Z,5.68
2017-09-19T21:46:19.936Z,5.62
2017-09-19T21:48:48.260Z,6.95
2017-09-19T21:51:15.752Z,7.65
2017-09-19T21:53:43.279Z,4.80
2017-09-19T21:56:10.782Z,5.75
2017-09-19T21:58:38.304Z,5.53
2017-09-19T22:01:05.800Z,4.68
2017-09-19T22:03:33.274Z,5.22
2017-09-19T22:06:01.569Z,6.30
2017-09-19T22:08:29.120Z,5.20
2017-09-19T22:10:56.648Z,4.32
2017-09-19T22:13:24.135Z,5.32
2017-09-19T22:15:51.667Z,4.55
2017-09-19T22:18:19.151Z,5.15
2017-09-19T22:20:47.432Z,5.25
2017-09-19T22:23:14.930Z,6.57
2017-09-19T22:25:42.439Z,5.22
2017-09-19T22:28:09.924Z,6.72
2017-09-19T22:30:37.418Z,7.93
2017-09-19T22:33:04.944Z,9.05
2017-09-19T22:35:32.463Z,8.70
2017-09-19T22:37:59.964Z,8.18
2017-09-19T22:40:27.477Z,9.98
2017-09-19T22:42:54.974Z,11.43
2017-09-19T22:45:22.479Z,11.43
2017-09-19T22:47:50.080Z,11.95
2017-09-19T22:50:17.599Z,13.45
2017-09-19T22:52:45.879Z,11.73
2017-09-19T22:55:14.138Z,11.82
2017-09-19T22:57:41.641Z,13.15
2017-09-19T23:00:09.135Z,12.13
2017-09-19T23:02:36.639Z,12.55
2017-09-19T23:05:04.893Z,11.25
2017-09-19T23:07:33.171Z,11.98
2017-09-19T23:10:01.464Z,13.60
2017-09-19T23:12:28.999Z,12.45
2017-09-19T23:14:56.483Z,12.55
2017-09-19T23:17:24.008Z,11.63
2017-09-19T23:19:51.502Z,14.23
2017-09-19T23:22:19.751Z,11.52
2017-09-19T23:24:47.239Z,11.18
2017-09-19T23:27:14.719Z,11.40
2017-09-19T23:29:42.211Z,12.00
2017-09-19T23:32:09.699Z,13.48
2017-09-19T23:34:37.986Z,14.05
2017-09-19T23:37:05.468Z,12.13
2017-09-19T23:39:32.962Z,12.68
2017-09-19T23:42:00.444Z,12.48
2017-09-19T23:44:28.721Z,11.55
2017-09-19T23:46:56.972Z,12.95
2017-09-19T23:49:24.468Z,15.73
2017-09-19T23:51:51.963Z,17.12
2017-09-19T23:54:19.469Z,13.75
2017-09-19T23:56:46.953Z,17.40
2017-09-19T23:59:14.455Z,14.57
